Time;durP1;ratioP1;P1;durP2;ratioP2;P2;SDS_P1;SDS_P2;PMS_P1;PMS_P2;Temp;Humidity;BMP_temperature;BMP_pressure;BME280_temperature;BME280_humidity;BME280_pressure;Samples;Min_cycle;Max_cycle;Signal;HPM_P1;HPM_P2
2022/10/19 00:00:24;;;;;;;2.90;1.55;;;6.20;99.90;;;;;;5094826;28;20464;-51
2022/10/19 00:02:50;;;;;;;2.63;1.30;;;6.10;99.90;;;;;;5094873;28;20496;-50
2022/10/19 00:05:16;;;;;;;2.55;1.20;;;6.10;99.90;;;;;;5093697;28;20020;-50
2022/10/19 00:07:41;;;;;;;1.45;1.10;;;6.10;99.90;;;;;;5094625;28;20019;-53
2022/10/19 00:10:07;;;;;;;2.58;1.30;;;6.00;99.90;;;;;;5094380;28;20024;-53
2022/10/19 00:12:33;;;;;;;3.58;1.15;;;6.00;99.90;;;;;;5094162;28;20020;-54
2022/10/19 00:14:59;;;;;;;2.20;1.00;;;6.00;99.90;;;;;;5094347;28;20066;-48
2022/10/19 00:17:25;;;;;;;1.75;1.00;;;5.90;99.90;;;;;;5094481;28;20028;-50
2022/10/19 00:19:50;;;;;;;4.05;1.95;;;5.80;99.90;;;;;;5093755;28;20028;-52
2022/10/19 00:22:16;;;;;;;2.97;1.50;;;5.80;99.90;;;;;;5092615;28;20150;-58
2022/10/19 00:24:41;;;;;;;5.70;1.70;;;5.70;99.90;;;;;;5094412;28;20046;-53
2022/10/19 00:27:07;;;;;;;5.45;1.70;;;5.70;99.90;;;;;;5093437;28;20354;-50
2022/10/19 00:29:33;;;;;;;3.88;1.85;;;5.70;99.90;;;;;;5094440;28;20436;-53
2022/10/19 00:31:58;;;;;;;4.55;1.90;;;5.70;99.90;;;;;;5094074;28;20020;-50
2022/10/19 00:34:24;;;;;;;2.00;1.52;;;5.60;99.90;;;;;;5092752;28;20074;-53
2022/10/19 00:36:49;;;;;;;4.22;1.80;;;5.70;99.90;;;;;;5094083;28;20354;-51
2022/10/19 00:39:17;;;;;;;2.78;1.85;;;5.60;99.90;;;;;;5093632;28;20530;-51
2022/10/19 00:41:45;;;;;;;5.30;1.80;;;5.70;99.90;;;;;;5093581;28;20062;-47
2022/10/19 00:44:10;;;;;;;4.57;1.83;;;5.60;99.90;;;;;;5093707;28;20028;-52
2022/10/19 00:46:52;;;;;;;2.05;1.60;;;5.60;99.90;;;;;;5095704;28;20024;-49
2022/10/19 00:49:23;;;;;;;1.85;1.50;;;5.60;99.90;;;;;;5093307;28;20031;-50
2022/10/19 00:51:54;;;;;;;3.90;1.85;;;5.60;99.90;;;;;;5093816;28;20141;-47
2022/10/19 00:54:20;;;;;;;3.30;1.77;;;5.60;99.90;;;;;;5092626;28;20039;-51
2022/10/19 00:56:50;;;;;;;2.35;1.40;;;5.60;99.90;;;;;;5093661;28;20112;-50
2022/10/19 00:59:19;;;;;;;2.60;1.55;;;5.60;99.90;;;;;;5103298;28;20391;-49
2022/10/19 01:01:46;;;;;;;3.65;1.80;;;5.60;99.90;;;;;;5113438;28;20019;-50
2022/10/19 01:04:12;;;;;;;3.10;1.73;;;5.60;99.90;;;;;;5101274;28;20054;-49
2022/10/19 01:06:39;;;;;;;4.05;1.70;;;5.60;99.90;;;;;;5093303;28;20016;-49
2022/10/19 01:09:06;;;;;;;2.60;1.80;;;5.60;99.90;;;;;;5094415;28;20027;-54
2022/10/19 01:12:12;;;;;;;5.35;1.73;;;5.60;99.90;;;;;;5093440;28;20051;-53
2022/10/19 01:14:57;;;;;;;4.72;2.22;;;5.60;99.90;;;;;;5077567;28;20036;-54
2022/10/19 01:17:26;;;;;;;4.53;2.40;;;5.60;99.90;;;;;;5093049;28;20035;-53
2022/10/19 01:20:03;;;;;;;3.67;2.40;;;5.50;99.90;;;;;;5095481;28;20034;-55
2022/10/19 01:22:47;;;;;;;4.55;2.30;;;5.50;99.90;;;;;;5092450;28;20048;-54
2022/10/19 01:25:23;;;;;;;4.80;2.30;;;5.50;99.90;;;;;;5092203;28;20036;-48
2022/10/19 01:28:07;;;;;;;5.55;2.50;;;5.50;99.90;;;;;;5093180;28;20023;-50
2022/10/19 01:30:53;;;;;;;7.15;2.72;;;5.50;99.90;;;;;;5082813;28;20024;-50
2022/10/19 01:33:42;;;;;;;4.30;2.47;;;5.50;99.90;;;;;;5092099;28;20017;-49
2022/10/19 01:36:24;;;;;;;6.05;2.30;;;5.40;99.90;;;;;;5092108;28;20480;-55
2022/10/19 01:39:10;;;;;;;4.18;1.90;;;5.40;99.90;;;;;;5086695;28;20036;-55
2022/10/19 01:41:53;;;;;;;2.28;1.60;;;5.30;99.90;;;;;;5072662;28;20428;-53
2022/10/19 01:44:27;;;;;;;2.63;1.70;;;5.20;99.90;;;;;;5071763;28;20021;-55
2022/10/19 01:47:05;;;;;;;2.50;1.40;;;5.10;99.90;;;;;;5072799;28;20021;-56
2022/10/19 01:49:55;;;;;;;3.17;1.38;;;5.00;99.90;;;;;;5072342;28;20025;-55
2022/10/19 01:52:24;;;;;;;1.43;1.33;;;4.90;99.90;;;;;;5070600;28;20074;-54
2022/10/19 01:54:54;;;;;;;3.58;2.15;;;4.90;99.90;;;;;;5070592;28;20317;-52
2022/10/19 01:57:24;;;;;;;2.28;1.70;;;4.80;99.90;;;;;;5071368;28;20043;-49
2022/10/19 01:59:50;;;;;;;5.75;2.25;;;4.80;99.90;;;;;;5088198;28;20043;-51
2022/10/19 02:02:18;;;;;;;3.85;2.35;;;4.80;99.90;;;;;;5092181;28;20016;-53
2022/10/19 02:04:45;;;;;;;3.55;2.13;;;4.80;99.90;;;;;;5091863;28;20111;-52
2022/10/19 02:07:11;;;;;;;4.05;2.75;;;4.70;99.90;;;;;;5092303;28;20107;-51
2022/10/19 02:09:37;;;;;;;4.53;2.20;;;4.70;99.90;;;;;;5091052;28;20441;-50
2022/10/19 02:12:08;;;;;;;4.53;2.78;;;4.70;99.90;;;;;;5082124;28;20159;-54
2022/10/19 02:14:44;;;;;;;6.28;2.88;;;4.70;99.90;;;;;;5072081;28;20025;-51
2022/10/19 02:17:17;;;;;;;5.13;3.25;;;4.70;99.90;;;;;;5071859;28;20040;-54
2022/10/19 02:19:42;;;;;;;6.22;3.20;;;4.70;99.90;;;;;;5070138;28;20483;-52
2022/10/19 02:22:08;;;;;;;6.95;3.50;;;4.70;99.90;;;;;;5072020;28;20044;-53
2022/10/19 02:24:34;;;;;;;6.18;2.90;;;4.70;99.90;;;;;;5072467;28;20040;-54
2022/10/19 02:27:03;;;;;;;8.27;3.38;;;4.70;99.90;;;;;;5070998;28;20127;-56
2022/10/19 02:29:30;;;;;;;7.03;3.10;;;4.80;99.90;;;;;;5075546;28;20492;-54
2022/10/19 02:31:56;;;;;;;5.43;3.10;;;4.80;99.90;;;;;;5082619;28;20037;-51
2022/10/19 02:34:21;;;;;;;6.88;3.65;;;4.80;99.90;;;;;;5070792;28;20031;-53
2022/10/19 02:36:47;;;;;;;5.05;3.13;;;4.80;99.90;;;;;;5071818;28;20037;-50
2022/10/19 02:39:13;;;;;;;5.68;3.28;;;4.80;99.90;;;;;;5071423;28;20032;-50
2022/10/19 02:41:42;;;;;;;6.63;3.30;;;4.80;99.90;;;;;;5077170;28;20511;-49
2022/10/19 02:44:37;;;;;;;4.95;3.28;;;4.80;99.90;;;;;;5091640;28;20104;-51
2022/10/19 02:47:12;;;;;;;5.68;2.85;;;4.80;99.90;;;;;;5090853;28;20271;-47
2022/10/19 02:49:38;;;;;;;7.10;2.83;;;4.80;99.90;;;;;;5090473;28;20039;-50
2022/10/19 02:52:06;;;;;;;5.00;2.70;;;4.90;99.90;;;;;;5091552;28;20518;-49
2022/10/19 02:54:31;;;;;;;4.32;2.35;;;4.80;99.90;;;;;;5076085;28;20122;-52
2022/10/19 02:56:57;;;;;;;3.78;2.30;;;4.80;99.90;;;;;;5089605;28;20529;-46
2022/10/19 02:59:23;;;;;;;4.53;2.22;;;4.80;99.90;;;;;;5095817;28;20547;-55
2022/10/19 03:01:49;;;;;;;5.35;2.70;;;4.80;99.90;;;;;;5095295;28;20495;-49
2022/10/19 03:04:15;;;;;;;4.35;2.33;;;4.70;99.90;;;;;;5084016;28;20017;-54
2022/10/19 03:06:41;;;;;;;4.93;2.47;;;4.70;99.90;;;;;;5075518;28;20074;-49
2022/10/19 03:09:07;;;;;;;6.18;2.95;;;4.70;99.90;;;;;;5074754;28;20511;-49
2022/10/19 03:11:33;;;;;;;7.00;2.92;;;4.60;99.90;;;;;;5075504;28;20104;-49
2022/10/19 03:13:58;;;;;;;5.43;2.90;;;4.60;99.90;;;;;;5092722;28;20028;-51
2022/10/19 03:16:24;;;;;;;4.40;2.60;;;4.60;99.90;;;;;;5095022;28;20422;-49
2022/10/19 03:18:50;;;;;;;5.47;2.47;;;4.60;99.90;;;;;;5095181;28;20061;-48
2022/10/19 03:21:16;;;;;;;4.40;2.90;;;4.60;99.90;;;;;;5096672;28;20107;-50
2022/10/19 03:23:42;;;;;;;5.47;2.60;;;4.60;99.90;;;;;;5098573;28;20075;-54
2022/10/19 03:26:10;;;;;;;4.47;2.60;;;4.50;99.90;;;;;;5094769;28;20028;-54
2022/10/19 03:28:36;;;;;;;5.85;2.40;;;4.60;99.90;;;;;;5095251;28;20035;-54
2022/10/19 03:31:01;;;;;;;4.03;2.40;;;4.50;99.90;;;;;;5094767;28;20032;-53
2022/10/19 03:33:27;;;;;;;6.43;2.60;;;4.50;99.90;;;;;;5095614;28;20125;-66
2022/10/19 03:36:22;;;;;;;3.10;2.08;;;4.40;99.90;;;;;;5087772;28;20024;-56
2022/10/19 03:38:52;;;;;;;3.92;2.08;;;4.40;99.90;;;;;;5074943;28;20059;-52
2022/10/19 03:41:22;;;;;;;3.53;2.15;;;4.40;99.90;;;;;;5073978;28;20477;-48
2022/10/19 03:43:48;;;;;;;6.30;2.75;;;4.40;99.90;;;;;;5074740;28;20389;-50
2022/10/19 03:46:14;;;;;;;4.45;2.42;;;4.40;99.90;;;;;;5076011;28;20017;-50
2022/10/19 03:48:39;;;;;;;6.65;3.42;;;4.40;99.90;;;;;;5094461;28;20106;-52
2022/10/19 03:51:08;;;;;;;9.20;3.88;;;4.40;99.90;;;;;;5094898;28;20392;-55
2022/10/19 03:53:34;;;;;;;15.43;4.07;;;4.40;99.90;;;;;;5094769;28;20474;-52
2022/10/19 03:56:14;;;;;;;24.73;5.07;;;4.40;99.90;;;;;;5090327;28;20025;-51
2022/10/19 03:58:40;;;;;;;13.35;4.65;;;4.30;99.90;;;;;;5074228;28;20067;-46
2022/10/19 04:01:09;;;;;;;16.50;4.60;;;4.30;99.90;;;;;;5074259;28;20429;-53
2022/10/19 04:03:35;;;;;;;11.07;4.97;;;4.30;99.90;;;;;;5074976;28;20032;-53
2022/10/19 04:06:06;;;;;;;9.10;4.32;;;4.30;99.90;;;;;;5097141;28;20030;-56
2022/10/19 04:08:32;;;;;;;10.55;3.97;;;4.30;99.90;;;;;;5091222;28;20040;-48
2022/10/19 04:11:03;;;;;;;14.48;4.82;;;4.20;99.90;;;;;;5093238;28;20031;-53
2022/10/19 04:13:29;;;;;;;13.15;4.00;;;4.20;99.90;;;;;;5093467;28;20020;-52
2022/10/19 04:15:55;;;;;;;7.70;3.63;;;4.20;99.90;;;;;;5094735;28;20020;-64
2022/10/19 04:18:21;;;;;;;7.63;3.92;;;4.20;99.90;;;;;;5092357;28;20115;-51
2022/10/19 04:20:46;;;;;;;9.93;5.18;;;4.20;99.90;;;;;;5094515;28;20035;-50
2022/10/19 04:23:12;;;;;;;12.45;4.68;;;4.20;99.90;;;;;;5093472;28;20086;-48
2022/10/19 04:25:37;;;;;;;8.32;4.07;;;4.10;99.90;;;;;;5094373;28;20032;-52
2022/10/19 04:28:03;;;;;;;9.13;4.60;;;4.10;99.90;;;;;;5094002;28;20048;-49
2022/10/19 04:30:29;;;;;;;7.90;4.30;;;4.10;99.90;;;;;;5093733;28;20028;-53
2022/10/19 04:32:54;;;;;;;7.93;4.22;;;4.00;99.90;;;;;;5093831;28;20110;-50
2022/10/19 04:35:20;;;;;;;8.30;3.90;;;4.00;99.90;;;;;;5093995;28;20032;-47
2022/10/19 04:37:45;;;;;;;9.23;4.13;;;4.00;99.90;;;;;;5093491;28;20035;-48
2022/10/19 04:40:11;;;;;;;7.72;4.15;;;4.00;99.90;;;;;;5093799;28;20523;-52
2022/10/19 04:42:37;;;;;;;9.32;4.13;;;4.00;99.90;;;;;;5093917;28;20020;-59
2022/10/19 04:45:03;;;;;;;9.57;4.55;;;4.00;99.90;;;;;;5093079;28;20047;-53
2022/10/19 04:47:29;;;;;;;8.75;3.83;;;4.00;99.90;;;;;;5093989;28;20365;-52
2022/10/19 04:49:54;;;;;;;11.32;3.97;;;3.90;99.90;;;;;;5094078;28;20044;-55
2022/10/19 04:52:20;;;;;;;10.30;4.03;;;3.90;99.90;;;;;;5092996;28;20517;-55
2022/10/19 04:54:46;;;;;;;10.32;3.70;;;3.90;99.90;;;;;;5091213;28;20039;-53
2022/10/19 04:57:12;;;;;;;7.22;4.20;;;3.80;99.90;;;;;;5091473;28;20035;-55
2022/10/19 04:59:37;;;;;;;7.32;3.70;;;3.80;99.90;;;;;;5091890;28;20027;-50
2022/10/19 05:02:03;;;;;;;10.40;4.40;;;3.80;99.90;;;;;;5093080;28;20381;-49
2022/10/19 05:04:28;;;;;;;6.10;3.15;;;3.80;99.90;;;;;;5092326;28;20054;-49
2022/10/19 05:06:54;;;;;;;7.18;3.53;;;3.80;99.90;;;;;;5092978;28;20039;-51
2022/10/19 05:09:19;;;;;;;11.50;4.20;;;3.80;99.90;;;;;;5093170;28;20016;-49
2022/10/19 05:11:48;;;;;;;9.77;4.00;;;3.80;99.90;;;;;;5093551;28;20376;-52
2022/10/19 05:14:13;;;;;;;7.88;3.80;;;3.80;99.90;;;;;;5092267;28;20073;-48
2022/10/19 05:16:39;;;;;;;8.63;3.75;;;3.80;99.90;;;;;;5093428;28;20024;-53
2022/10/19 05:19:04;;;;;;;9.35;4.32;;;3.80;99.90;;;;;;5092891;28;20028;-47
2022/10/19 05:21:30;;;;;;;7.85;4.10;;;3.80;99.90;;;;;;5092045;28;20489;-47
2022/10/19 05:23:56;;;;;;;7.00;3.60;;;3.80;99.90;;;;;;5093333;28;20036;-47
2022/10/19 05:26:24;;;;;;;6.97;3.78;;;3.80;99.90;;;;;;5092539;28;20036;-48
2022/10/19 05:29:00;;;;;;;7.32;3.85;;;3.80;99.90;;;;;;5095337;28;20480;-50
2022/10/19 05:31:28;;;;;;;7.10;4.05;;;3.80;99.90;;;;;;5095681;28;20043;-52
2022/10/19 05:33:56;;;;;;;6.70;3.55;;;3.70;99.90;;;;;;5092496;28;20095;-47
2022/10/19 05:36:28;;;;;;;7.95;3.53;;;3.70;99.90;;;;;;5092752;28;20016;-58
2022/10/19 05:38:55;;;;;;;8.45;3.63;;;3.60;99.90;;;;;;5092923;28;20039;-51
2022/10/19 05:41:23;;;;;;;7.93;3.60;;;3.60;99.90;;;;;;5091784;28;20077;-48
2022/10/19 05:43:57;;;;;;;6.78;3.78;;;3.50;99.90;;;;;;5092781;28;20034;-60
2022/10/19 05:46:24;;;;;;;9.60;3.85;;;3.40;99.90;;;;;;5091801;28;20053;-67
2022/10/19 05:48:49;;;;;;;6.18;3.50;;;3.40;99.90;;;;;;5092195;28;20072;-54
2022/10/19 05:51:17;;;;;;;7.63;4.15;;;3.40;99.90;;;;;;5092418;28;20450;-51
2022/10/19 05:53:43;;;;;;;7.20;4.15;;;3.40;99.90;;;;;;5092725;28;20099;-49
2022/10/19 05:56:13;;;;;;;7.55;3.83;;;3.30;99.90;;;;;;5091627;28;20139;-48
2022/10/19 05:58:39;;;;;;;8.18;4.22;;;3.30;99.90;;;;;;5092414;28;20114;-55
2022/10/19 06:01:05;;;;;;;8.25;4.35;;;3.30;99.90;;;;;;5092445;28;20425;-50
2022/10/19 06:03:30;;;;;;;9.43;4.50;;;3.30;99.90;;;;;;5091830;28;20024;-47
2022/10/19 06:05:56;;;;;;;11.38;4.50;;;3.40;99.90;;;;;;5092596;28;20027;-49
2022/10/19 06:08:23;;;;;;;8.48;4.50;;;3.30;99.90;;;;;;5092490;28;20107;-49
2022/10/19 06:10:50;;;;;;;8.00;4.18;;;3.30;99.90;;;;;;5092043;28;20144;-49
2022/10/19 06:13:18;;;;;;;6.80;4.07;;;3.30;99.90;;;;;;5092140;28;20533;-50
2022/10/19 06:15:43;;;;;;;6.60;4.03;;;3.30;99.90;;;;;;5091775;28;20020;-54
2022/10/19 06:18:11;;;;;;;8.93;3.55;;;3.30;99.90;;;;;;5092154;28;20039;-61
2022/10/19 06:20:39;;;;;;;7.18;4.00;;;3.30;99.90;;;;;;5092491;28;20024;-48
2022/10/19 06:23:05;;;;;;;5.85;3.70;;;3.30;99.90;;;;;;5091343;28;20032;-58
2022/10/19 06:25:32;;;;;;;9.05;4.10;;;3.30;99.90;;;;;;5092395;28;20089;-51
2022/10/19 06:27:58;;;;;;;6.63;3.92;;;3.30;99.90;;;;;;5091923;28;20476;-58
2022/10/19 06:30:24;;;;;;;10.80;4.95;;;3.40;99.90;;;;;;5091670;28;20365;-51
2022/10/19 06:32:50;;;;;;;9.13;4.88;;;3.40;99.90;;;;;;5091489;28;20069;-54
2022/10/19 06:35:16;;;;;;;14.68;5.25;;;3.40;99.90;;;;;;5092358;28;20345;-58
2022/10/19 06:37:42;;;;;;;10.27;5.60;;;3.40;99.90;;;;;;5091246;28;20035;-55
2022/10/19 06:40:08;;;;;;;12.35;5.43;;;3.40;99.90;;;;;;5091879;28;20016;-48
2022/10/19 06:42:37;;;;;;;10.05;5.25;;;3.50;99.90;;;;;;5092179;28;20012;-52
2022/10/19 06:45:09;;;;;;;8.55;4.68;;;3.50;99.90;;;;;;5091045;28;20020;-52
2022/10/19 06:47:36;;;;;;;9.35;4.85;;;3.50;99.90;;;;;;5092078;28;20039;-49
2022/10/19 06:50:04;;;;;;;10.27;5.68;;;3.60;99.90;;;;;;5091768;28;20016;-46
2022/10/19 06:52:30;;;;;;;14.13;5.68;;;3.70;99.90;;;;;;5091190;28;20035;-48
2022/10/19 06:54:55;;;;;;;14.90;4.95;;;3.70;99.90;;;;;;5091998;28;20027;-58
2022/10/19 06:57:21;;;;;;;12.82;5.00;;;3.70;99.90;;;;;;5090278;28;20032;-52
2022/10/19 06:59:46;;;;;;;14.05;5.03;;;3.70;99.90;;;;;;5091258;28;20390;-48
2022/10/19 07:02:12;;;;;;;10.57;5.05;;;3.80;99.90;;;;;;5091557;28;20028;-52
2022/10/19 07:04:38;;;;;;;12.32;6.22;;;3.90;99.90;;;;;;5090636;28;20017;-46
2022/10/19 07:07:04;;;;;;;10.70;5.93;;;4.00;99.90;;;;;;5090831;28;20039;-51
2022/10/19 07:09:29;;;;;;;11.98;5.80;;;4.10;99.90;;;;;;5091581;28;20088;-56
2022/10/19 07:11:55;;;;;;;12.07;5.55;;;4.20;99.90;;;;;;5091188;28;20100;-60
2022/10/19 07:14:23;;;;;;;13.38;5.70;;;4.30;99.90;;;;;;5091525;28;20380;-52
2022/10/19 07:16:49;;;;;;;13.20;6.07;;;4.30;99.90;;;;;;5091545;28;20516;-56
2022/10/19 07:19:15;;;;;;;15.30;5.53;;;4.40;99.90;;;;;;5090719;28;20028;-48
2022/10/19 07:21:42;;;;;;;13.52;6.32;;;4.40;99.90;;;;;;5091536;28;20040;-50
2022/10/19 07:24:08;;;;;;;10.35;5.80;;;4.50;99.90;;;;;;5091435;28;20028;-55
2022/10/19 07:26:34;;;;;;;13.63;6.03;;;4.50;99.90;;;;;;5091231;28;20530;-54
2022/10/19 07:28:59;;;;;;;13.55;6.43;;;4.60;99.90;;;;;;5091345;28;20031;-60
2022/10/19 07:31:27;;;;;;;10.15;5.05;;;4.80;99.90;;;;;;5091617;28;20020;-48
2022/10/19 07:33:56;;;;;;;12.52;6.78;;;4.90;99.90;;;;;;5090923;28;20107;-61
2022/10/19 07:36:23;;;;;;;11.73;6.20;;;5.10;99.90;;;;;;5092909;28;20026;-54
2022/10/19 07:38:49;;;;;;;12.88;6.38;;;5.20;99.90;;;;;;5094509;28;20055;-58
2022/10/19 07:41:17;;;;;;;12.43;6.50;;;5.40;99.90;;;;;;5091256;28;20381;-62
2022/10/19 07:43:44;;;;;;;9.80;5.18;;;5.50;99.90;;;;;;5093824;28;20020;-60
2022/10/19 07:46:13;;;;;;;9.75;5.55;;;5.60;99.90;;;;;;5095221;28;20058;-63
2022/10/19 07:48:39;;;;;;;10.18;5.95;;;5.80;99.90;;;;;;5094480;28;20027;-64
2022/10/19 07:51:06;;;;;;;11.27;5.85;;;5.90;99.90;;;;;;5095103;28;20016;-59
2022/10/19 07:53:33;;;;;;;13.18;6.22;;;6.00;99.90;;;;;;5095087;28;20028;-62
2022/10/19 07:56:04;;;;;;;11.95;5.93;;;6.10;99.90;;;;;;5094420;28;20020;-67
2022/10/19 07:58:30;;;;;;;10.50;6.18;;;6.20;99.90;;;;;;5095137;28;20038;-55
2022/10/19 08:01:24;;;;;;;12.20;6.38;;;6.30;99.90;;;;;;5094888;28;20103;-53
2022/10/19 08:03:51;;;;;;;8.90;5.57;;;6.50;99.90;;;;;;5092908;28;20040;-59
2022/10/19 08:06:18;;;;;;;11.23;6.72;;;6.60;99.90;;;;;;5094206;28;20042;-55
2022/10/19 08:08:45;;;;;;;9.05;5.78;;;6.70;99.90;;;;;;5093970;28;20016;-55
2022/10/19 08:11:25;;;;;;;10.00;5.72;;;6.90;99.90;;;;;;5094515;28;20110;-54
2022/10/19 08:13:51;;;;;;;8.63;5.65;;;7.00;99.90;;;;;;5094677;28;20456;-56
2022/10/19 08:16:25;;;;;;;10.45;5.65;;;7.10;99.90;;;;;;5093782;28;20024;-52
2022/10/19 08:18:52;;;;;;;10.10;5.07;;;7.20;99.90;;;;;;5094472;28;20036;-51
2022/10/19 08:21:18;;;;;;;11.30;6.57;;;7.40;99.90;;;;;;5094112;28;20487;-57
2022/10/19 08:23:43;;;;;;;8.95;5.60;;;7.50;99.90;;;;;;5093765;28;20063;-54
2022/10/19 08:26:09;;;;;;;9.40;5.25;;;7.50;99.90;;;;;;5094122;28;20035;-55
2022/10/19 08:28:34;;;;;;;10.35;5.32;;;7.60;99.90;;;;;;5094291;28;20032;-57
2022/10/19 08:31:11;;;;;;;9.82;5.72;;;7.70;99.90;;;;;;5092295;28;20028;-54
2022/10/19 08:33:38;;;;;;;8.95;5.47;;;7.80;99.90;;;;;;5094272;28;20508;-55
2022/10/19 08:36:05;;;;;;;13.40;5.43;;;8.00;99.90;;;;;;5093999;28;20054;-58
2022/10/19 08:38:31;;;;;;;13.63;5.28;;;8.10;99.90;;;;;;5093313;28;20044;-54
2022/10/19 08:41:02;;;;;;;10.55;5.50;;;8.20;99.90;;;;;;5092959;28;20472;-52
2022/10/19 08:43:36;;;;;;;10.23;6.18;;;8.30;99.90;;;;;;5093578;28;20012;-55
2022/10/19 08:46:21;;;;;;;11.00;6.45;;;8.40;99.90;;;;;;5093713;28;20035;-47
2022/10/19 08:48:46;;;;;;;12.43;5.85;;;8.40;99.90;;;;;;5093983;28;20487;-48
2022/10/19 08:51:13;;;;;;;11.00;6.22;;;8.40;99.90;;;;;;5093181;28;20024;-55
2022/10/19 08:53:51;;;;;;;13.57;6.78;;;8.50;99.90;;;;;;5093980;28;20012;-56
2022/10/19 08:56:24;;;;;;;12.55;7.05;;;8.60;99.90;;;;;;5092729;28;20032;-53
2022/10/19 08:59:29;;;;;;;11.40;6.55;;;8.60;99.90;;;;;;5095087;28;20079;-55
2022/10/19 09:02:21;;;;;;;15.68;7.32;;;8.80;99.90;;;;;;5061622;28;20465;-52
2022/10/19 09:04:53;;;;;;;11.60;7.03;;;8.90;99.90;;;;;;5081408;28;20443;-54
2022/10/19 09:07:31;;;;;;;17.08;7.03;;;9.00;99.90;;;;;;5093442;28;20029;-48
2022/10/19 09:10:02;;;;;;;12.23;6.82;;;9.10;99.90;;;;;;5093278;28;20024;-50
2022/10/19 09:12:46;;;;;;;11.65;6.63;;;9.20;99.90;;;;;;5093037;28;20023;-49
2022/10/19 09:15:16;;;;;;;9.05;5.47;;;9.30;99.90;;;;;;5093332;28;20495;-48
2022/10/19 09:17:41;;;;;;;10.05;5.65;;;9.40;99.90;;;;;;5093171;28;20054;-50
2022/10/19 09:20:25;;;;;;;12.65;5.90;;;9.50;99.90;;;;;;5092523;28;20024;-53
2022/10/19 09:23:17;;;;;;;12.48;6.93;;;9.60;99.90;;;;;;5092991;28;20044;-53
2022/10/19 09:25:43;;;;;;;14.60;5.85;;;9.70;99.90;;;;;;5091426;28;20081;-48
2022/10/19 09:28:19;;;;;;;10.70;5.43;;;9.80;99.90;;;;;;5092924;28;20024;-60
2022/10/19 09:30:46;;;;;;;11.23;5.70;;;9.90;99.90;;;;;;5091870;28;20060;-52
2022/10/19 09:33:21;;;;;;;13.88;5.53;;;10.00;99.90;;;;;;5092195;28;20024;-51
2022/10/19 09:35:47;;;;;;;9.88;4.63;;;10.10;99.90;;;;;;5093202;28;20024;-54
2022/10/19 09:38:15;;;;;;;10.38;5.18;;;10.10;99.90;;;;;;5092574;28;20028;-49
2022/10/19 09:40:42;;;;;;;13.35;6.07;;;10.20;99.90;;;;;;5092344;28;20028;-47
2022/10/19 09:43:18;;;;;;;12.57;4.75;;;10.20;99.90;;;;;;5093485;28;20426;-51
2022/10/19 09:45:54;;;;;;;7.85;4.50;;;10.30;99.90;;;;;;5096003;28;20026;-51
2022/10/19 09:48:27;;;;;;;9.57;4.07;;;10.30;99.90;;;;;;5092161;28;20392;-59
2022/10/19 09:50:57;;;;;;;8.05;4.50;;;10.40;99.90;;;;;;5093041;28;20082;-57
2022/10/19 09:53:25;;;;;;;12.00;4.32;;;10.50;99.90;;;;;;5092760;28;20028;-57
2022/10/19 09:56:03;;;;;;;9.82;3.63;;;10.60;99.90;;;;;;5091857;28;20370;-51
2022/10/19 09:58:29;;;;;;;9.85;3.70;;;10.70;99.90;;;;;;5091184;28;20055;-52
2022/10/19 10:00:56;;;;;;;8.80;3.75;;;10.70;99.90;;;;;;5089798;28;20024;-49
2022/10/19 10:03:39;;;;;;;8.00;3.58;;;10.80;99.90;;;;;;5094713;28;20055;-54
2022/10/19 10:06:13;;;;;;;11.07;3.50;;;10.80;99.90;;;;;;5092158;28;20020;-52
2022/10/19 10:08:56;;;;;;;7.55;3.45;;;10.90;99.90;;;;;;5079303;28;20017;-53
2022/10/19 10:11:27;;;;;;;12.55;3.65;;;10.90;99.90;;;;;;5071726;28;20023;-55
2022/10/19 10:13:54;;;;;;;5.88;2.55;;;11.00;99.90;;;;;;5111019;27;20020;-53
2022/10/19 10:16:22;;;;;;;11.68;3.05;;;11.10;99.90;;;;;;5087206;28;20027;-51
2022/10/19 10:18:58;;;;;;;8.23;2.70;;;11.10;99.90;;;;;;5084285;28;20445;-52
2022/10/19 10:21:31;;;;;;;7.05;2.38;;;11.20;99.90;;;;;;5070023;28;20035;-53
2022/10/19 10:24:05;;;;;;;4.50;2.55;;;11.30;99.90;;;;;;5070459;28;20052;-54
2022/10/19 10:26:37;;;;;;;8.43;2.38;;;11.30;99.90;;;;;;5073533;28;20024;-55
2022/10/19 10:29:25;;;;;;;4.25;2.20;;;11.40;99.90;;;;;;5086921;28;20028;-49
2022/10/19 10:32:00;;;;;;;5.97;2.10;;;11.50;99.90;;;;;;5078077;28;20032;-47
2022/10/19 10:34:54;;;;;;;8.45;2.80;;;11.60;99.90;;;;;;5069736;28;20067;-50
2022/10/19 10:37:36;;;;;;;5.57;2.38;;;11.60;99.90;;;;;;5081740;28;20486;-49
2022/10/19 10:40:04;;;;;;;4.13;2.47;;;11.60;99.90;;;;;;5088755;28;20078;-54
2022/10/19 10:42:33;;;;;;;5.60;2.33;;;11.70;99.90;;;;;;5090896;28;20020;-51
2022/10/19 10:45:00;;;;;;;7.05;2.65;;;11.70;99.90;;;;;;5088661;28;20020;-57
2022/10/19 10:47:27;;;;;;;5.88;2.00;;;11.80;99.90;;;;;;5090788;28;20047;-58
2022/10/19 10:50:05;;;;;;;4.55;1.98;;;11.80;99.90;;;;;;5090383;28;20476;-49
2022/10/19 10:52:31;;;;;;;3.67;1.80;;;11.90;99.90;;;;;;5070035;28;20035;-51
2022/10/19 10:55:01;;;;;;;5.72;2.20;;;11.90;99.90;;;;;;5088623;28;20023;-49
2022/10/19 10:57:34;;;;;;;5.05;2.47;;;11.90;99.90;;;;;;5088799;28;20064;-53
2022/10/19 11:00:09;;;;;;;5.75;2.17;;;11.90;99.90;;;;;;5088713;28;20107;-54
2022/10/19 11:02:55;;;;;;;3.35;2.03;;;11.90;99.90;;;;;;5089788;28;20441;-52
2022/10/19 11:05:33;;;;;;;3.50;1.92;;;11.90;99.90;;;;;;5088317;28;20495;-49
2022/10/19 11:08:11;;;;;;;7.65;2.15;;;12.00;99.90;;;;;;5090028;28;20065;-48
2022/10/19 11:10:58;;;;;;;6.68;2.05;;;12.00;99.90;;;;;;5091055;28;20054;-50
2022/10/19 11:13:35;;;;;;;5.38;2.17;;;12.00;99.90;;;;;;5089951;28;20036;-52
2022/10/19 11:16:26;;;;;;;4.60;2.05;;;12.00;99.90;;;;;;5089913;28;20668;-56
2022/10/19 11:19:07;;;;;;;3.80;2.43;;;12.10;99.90;;;;;;5092310;28;20047;-53
2022/10/19 11:21:55;;;;;;;7.85;2.88;;;12.10;99.90;;;;;;5092843;28;20144;-52
2022/10/19 11:24:58;;;;;;;6.20;2.40;;;12.10;99.90;;;;;;5091936;28;20036;-54
2022/10/19 11:28:02;;;;;;;5.75;2.20;;;12.10;99.90;;;;;;5057008;28;20036;-54
2022/10/19 11:30:32;;;;;;;6.95;2.00;;;12.10;99.90;;;;;;5094293;28;20488;-54
2022/10/19 11:33:15;;;;;;;6.80;2.22;;;12.20;99.90;;;;;;5091808;28;20484;-50
2022/10/19 11:35:52;;;;;;;5.50;1.70;;;12.10;99.70;;;;;;5093740;28;20020;-54
2022/10/19 11:38:35;;;;;;;6.93;2.05;;;12.20;99.40;;;;;;5096558;28;20068;-54
2022/10/19 11:41:07;;;;;;;3.70;1.50;;;12.20;99.40;;;;;;5093333;28;20031;-55
2022/10/19 11:44:08;;;;;;;4.57;1.75;;;12.20;99.30;;;;;;5093625;28;20027;-52
2022/10/19 11:46:42;;;;;;;3.05;1.60;;;12.30;99.50;;;;;;5091067;28;20064;-55
2022/10/19 11:49:40;;;;;;;2.92;1.42;;;12.30;99.50;;;;;;5094072;28;20031;-55
2022/10/19 11:52:13;;;;;;;2.70;1.50;;;12.40;99.40;;;;;;5095263;28;20308;-52
2022/10/19 11:54:51;;;;;;;5.07;1.60;;;12.40;99.40;;;;;;5096535;28;20028;-54
2022/10/19 11:57:37;;;;;;;3.92;1.63;;;12.50;99.30;;;;;;5092823;28;20112;-52
2022/10/19 12:00:13;;;;;;;8.40;1.83;;;12.50;99.10;;;;;;5094031;28;20032;-51
2022/10/19 12:02:57;;;;;;;3.30;1.52;;;12.50;98.60;;;;;;5098883;28;20095;-63
2022/10/19 12:05:26;;;;;;;2.95;1.40;;;12.60;98.40;;;;;;5096840;28;20167;-64
2022/10/19 12:07:52;;;;;;;4.15;1.50;;;12.50;98.20;;;;;;5093061;28;20058;-54
2022/10/19 12:10:36;;;;;;;3.38;1.60;;;12.50;98.40;;;;;;5086548;28;20056;-48
2022/10/19 12:13:07;;;;;;;2.88;1.38;;;12.50;98.60;;;;;;5086999;28;20476;-53
2022/10/19 12:15:47;;;;;;;4.50;1.67;;;12.50;98.20;;;;;;5094786;28;20019;-57
2022/10/19 12:18:49;;;;;;;4.80;1.65;;;12.50;97.90;;;;;;5071865;28;20054;-56
2022/10/19 12:21:29;;;;;;;3.83;1.30;;;12.60;97.70;;;;;;5082416;28;20032;-51
2022/10/19 12:23:57;;;;;;;4.25;1.35;;;12.60;98.10;;;;;;5094547;28;20412;-54
2022/10/19 12:26:26;;;;;;;4.53;1.30;;;12.60;97.70;;;;;;5091608;28;20529;-55
2022/10/19 12:28:57;;;;;;;3.65;1.50;;;12.70;97.90;;;;;;5093294;28;20036;-55
2022/10/19 12:31:25;;;;;;;3.53;1.35;;;12.70;98.00;;;;;;5092103;28;20482;-55
2022/10/19 12:34:19;;;;;;;5.72;1.35;;;12.70;98.00;;;;;;5092729;28;20027;-55
2022/10/19 12:37:14;;;;;;;4.22;1.50;;;12.80;97.40;;;;;;5090159;28;20042;-53
2022/10/19 12:39:55;;;;;;;4.38;1.65;;;12.70;97.30;;;;;;5092661;28;20365;-49
2022/10/19 12:42:47;;;;;;;4.00;1.17;;;12.70;97.10;;;;;;5091302;28;20016;-46
2022/10/19 12:45:29;;;;;;;3.45;0.95;;;12.70;97.20;;;;;;5093673;28;20028;-52
2022/10/19 12:48:19;;;;;;;5.60;1.35;;;12.70;97.50;;;;;;5093778;28;20024;-50
2022/10/19 12:50:47;;;;;;;2.10;0.95;;;12.80;97.50;;;;;;5093024;28;20369;-49
2022/10/19 12:53:24;;;;;;;2.95;1.40;;;12.80;97.50;;;;;;5093087;28;20042;-49
2022/10/19 12:56:12;;;;;;;3.10;1.17;;;12.80;97.40;;;;;;5093668;28;20357;-50
2022/10/19 12:58:43;;;;;;;4.57;1.63;;;12.90;97.20;;;;;;5092676;28;20039;-49
2022/10/19 13:01:24;;;;;;;5.72;1.25;;;12.80;96.50;;;;;;5093345;28;20024;-49
2022/10/19 13:04:12;;;;;;;5.57;1.70;;;12.80;96.50;;;;;;5092786;28;20139;-55
2022/10/19 13:06:50;;;;;;;4.53;1.42;;;12.80;96.30;;;;;;5092013;28;20050;-48
2022/10/19 13:09:22;;;;;;;4.28;1.38;;;12.80;96.60;;;;;;5092969;28;20389;-47
2022/10/19 13:12:12;;;;;;;6.53;1.58;;;12.80;96.60;;;;;;5092768;28;20021;-50